Time;durP1;ratioP1;P1;durP2;ratioP2;P2;SDS_P1;SDS_P2;PMS_P1;PMS_P2;Temp;Humidity;BMP_temperature;BMP_pressure;BME280_temperature;BME280_humidity;BME280_pressure;Samples;Min_cycle;Max_cycle;Signal;HPM_P1;HPM_P2
2021/03/24 00:02:43;;;;;;;13.30;7.37;;;;;;;5.37;66.87;100712.35;147821;1147;104476;-76
2021/03/24 00:05:50;;;;;;;13.93;8.37;;;;;;;5.35;65.81;100708.97;147761;1146;104450;-77
2021/03/24 00:08:54;;;;;;;12.43;7.70;;;;;;;5.31;65.72;100703.05;147803;1147;104572;-78
2021/03/24 00:11:57;;;;;;;12.05;7.50;;;;;;;5.26;66.67;100709.61;147804;1146;104510;-77
2021/03/24 00:15:00;;;;;;;12.82;7.78;;;;;;;5.21;65.98;100704.63;147755;1147;104556;-78
2021/03/24 00:18:04;;;;;;;14.70;8.05;;;;;;;5.18;66.45;100706.67;147773;1146;104481;-78
2021/03/24 00:21:08;;;;;;;13.58;6.97;;;;;;;5.14;66.30;100707.80;147768;1147;104447;-77
2021/03/24 00:24:12;;;;;;;12.37;6.83;;;;;;;5.14;66.00;100703.39;147771;1147;104462;-81
2021/03/24 00:27:15;;;;;;;13.28;7.83;;;;;;;5.17;65.65;100719.02;147784;1148;104436;-78
2021/03/24 00:30:21;;;;;;;13.45;7.45;;;;;;;5.22;66.73;100716.08;147730;1147;104859;-78
2021/03/24 00:33:26;;;;;;;12.13;7.87;;;;;;;5.21;66.06;100712.56;147797;1148;104921;-74
2021/03/24 00:36:29;;;;;;;14.90;8.30;;;;;;;5.20;66.64;100721.47;147741;1147;104471;-76
2021/03/24 00:39:33;;;;;;;13.20;8.50;;;;;;;5.18;66.66;100719.89;147548;1147;104493;-74
2021/03/24 00:42:36;;;;;;;14.10;7.43;;;;;;;5.13;67.26;100722.00;147681;1147;104470;-74
2021/03/24 00:45:41;;;;;;;15.48;8.28;;;;;;;5.10;66.16;100715.97;147776;1147;104546;-76
2021/03/24 00:48:44;;;;;;;15.68;8.38;;;;;;;5.10;66.43;100725.72;147682;1147;104507;-75
2021/03/24 00:51:47;;;;;;;16.35;8.48;;;;;;;5.07;66.26;100717.98;147656;1146;104447;-74
2021/03/24 00:54:50;;;;;;;16.30;9.80;;;;;;;5.08;66.30;100717.88;147669;1147;104448;-74
2021/03/24 00:57:53;;;;;;;16.65;7.83;;;;;;;5.15;65.99;100720.09;147633;1146;105423;-76
2021/03/24 01:00:56;;;;;;;13.40;7.90;;;;;;;5.22;66.32;100716.08;147705;1147;104592;-73
2021/03/24 01:04:00;;;;;;;11.95;7.53;;;;;;;5.23;66.16;100720.40;147649;1147;104549;-74
2021/03/24 01:07:04;;;;;;;14.18;7.80;;;;;;;5.19;66.99;100727.70;147668;1147;104473;-73
2021/03/24 01:10:11;;;;;;;15.68;7.65;;;;;;;5.15;67.57;100723.58;147516;1147;104526;-74
2021/03/24 01:13:16;;;;;;;17.33;8.00;;;;;;;5.13;67.00;100728.13;147453;1147;104469;-78
2021/03/24 01:16:19;;;;;;;14.03;8.15;;;;;;;5.08;66.90;100733.75;147544;1147;104691;-78
2021/03/24 01:19:23;;;;;;;13.05;7.97;;;;;;;5.09;66.61;100727.49;147763;1147;104577;-77
2021/03/24 01:22:26;;;;;;;15.15;8.08;;;;;;;5.08;67.09;100731.11;147779;1147;104546;-76
2021/03/24 01:25:29;;;;;;;14.33;7.70;;;;;;;5.11;66.97;100730.88;147749;1147;104550;-77
2021/03/24 01:28:32;;;;;;;15.72;8.23;;;;;;;5.14;67.52;100735.13;147576;1148;104466;-75
2021/03/24 01:31:35;;;;;;;13.10;7.83;;;;;;;5.17;66.56;100734.06;147728;1147;104957;-75
2021/03/24 01:34:38;;;;;;;14.45;8.28;;;;;;;5.21;67.12;100727.59;147719;1147;104588;-74
2021/03/24 01:37:43;;;;;;;15.80;8.70;;;;;;;5.22;66.88;100727.50;147751;1147;104524;-75
2021/03/24 01:40:49;;;;;;;16.82;8.23;;;;;;;5.20;66.65;100728.56;147740;1147;104449;-76
2021/03/24 01:43:54;;;;;;;16.20;8.63;;;;;;;5.18;67.42;100730.47;147753;1147;104512;-73
2021/03/24 01:46:57;;;;;;;13.25;7.60;;;;;;;5.14;67.17;100737.77;147684;1147;104534;-74
2021/03/24 01:50:00;;;;;;;15.40;8.70;;;;;;;5.12;67.71;100731.74;147801;1147;104547;-75
2021/03/24 01:53:04;;;;;;;14.87;7.95;;;;;;;5.07;67.25;100734.69;147391;1147;104526;-72
2021/03/24 01:56:09;;;;;;;16.95;8.80;;;;;;;5.09;67.65;100730.14;147711;1147;104476;-74
2021/03/24 01:59:13;;;;;;;13.90;8.15;;;;;;;5.14;67.53;100739.55;147738;1147;104486;-72
2021/03/24 02:02:27;;;;;;;15.83;8.28;;;;;;;5.15;67.86;100736.80;147534;1147;104592;-74
2021/03/24 02:05:31;;;;;;;13.00;8.08;;;;;;;5.17;67.37;100737.55;147319;1147;104461;-73
2021/03/24 02:08:42;;;;;;;13.23;8.43;;;;;;;5.16;67.42;100742.93;147742;1147;104467;-74
2021/03/24 02:11:52;;;;;;;15.80;9.03;;;;;;;5.16;67.54;100742.93;147651;1148;104471;-73
2021/03/24 02:14:59;;;;;;;13.13;8.75;;;;;;;5.11;67.87;100741.45;147488;1148;104449;-76
2021/03/24 02:18:05;;;;;;;16.57;8.65;;;;;;;5.10;67.45;100744.23;147577;1146;104608;-76
2021/03/24 02:21:11;;;;;;;14.13;8.85;;;;;;;5.06;67.59;100733.02;147341;1147;104526;-75
2021/03/24 02:24:24;;;;;;;16.67;9.08;;;;;;;5.04;68.38;100741.98;147638;1147;104492;-74
2021/03/24 02:27:32;;;;;;;19.80;8.98;;;;;;;5.06;67.65;100740.08;147691;1146;104548;-79
2021/03/24 02:30:38;;;;;;;15.93;8.35;;;;;;;5.10;67.73;100742.42;147609;1146;104521;-73
2021/03/24 02:33:44;;;;;;;14.80;8.50;;;;;;;5.14;67.77;100745.71;147641;1147;104531;-75
2021/03/24 02:36:49;;;;;;;17.35;9.55;;;;;;;5.17;68.14;100739.35;147821;1147;104543;-74
2021/03/24 02:39:54;;;;;;;17.07;9.25;;;;;;;5.18;67.58;100743.70;147814;1147;104541;-76
2021/03/24 02:42:59;;;;;;;18.17;10.00;;;;;;;5.15;67.55;100750.03;147795;1147;104457;-77
2021/03/24 02:46:05;;;;;;;16.97;9.77;;;;;;;5.13;68.01;100753.74;147766;1146;104503;-76
2021/03/24 02:49:10;;;;;;;17.10;9.63;;;;;;;5.08;68.18;100748.75;147759;1147;104623;-75
2021/03/24 02:52:14;;;;;;;16.07;9.60;;;;;;;5.05;68.41;100755.11;147371;1147;104525;-78
2021/03/24 02:55:20;;;;;;;18.57;9.78;;;;;;;5.01;68.12;100748.34;147768;1147;104450;-77
2021/03/24 02:58:24;;;;;;;17.13;9.77;;;;;;;5.02;68.08;100746.53;147765;1148;104518;-79
2021/03/24 03:01:34;;;;;;;21.70;10.70;;;;;;;5.04;68.83;100752.56;147737;1147;104473;-80
2021/03/24 03:04:42;;;;;;;21.23;11.07;;;;;;;5.06;68.46;100748.88;147772;1147;104614;-77
2021/03/24 03:07:50;;;;;;;21.07;11.97;;;;;;;5.11;68.71;100752.04;147729;1148;104557;-76
2021/03/24 03:11:00;;;;;;;22.65;11.68;;;;;;;5.10;68.05;100750.36;147589;1147;104815;-77
2021/03/24 03:14:08;;;;;;;22.30;11.78;;;;;;;5.10;67.83;100755.66;147758;1148;104579;-75
2021/03/24 03:17:17;;;;;;;18.67;10.70;;;;;;;5.10;67.66;100754.81;147774;1147;104531;-76
2021/03/24 03:20:25;;;;;;;16.90;9.47;;;;;;;5.08;67.94;100762.84;147746;1148;104767;-73
2021/03/24 03:23:30;;;;;;;18.80;10.43;;;;;;;5.06;67.99;100759.47;147778;1147;104562;-74
2021/03/24 03:26:36;;;;;;;18.67;9.63;;;;;;;5.00;67.56;100767.79;147733;1147;104582;-73
2021/03/24 03:29:42;;;;;;;15.48;9.23;;;;;;;5.01;68.82;100760.73;147709;1147;105055;-74
2021/03/24 03:32:48;;;;;;;17.67;9.37;;;;;;;5.02;68.39;100752.70;147789;1147;104573;-74
2021/03/24 03:35:53;;;;;;;17.15;10.28;;;;;;;4.99;68.31;100752.89;147742;1147;104597;-75
2021/03/24 03:38:57;;;;;;;19.60;9.98;;;;;;;5.02;67.76;100752.70;147555;1147;104522;-74
2021/03/24 03:42:03;;;;;;;14.98;9.70;;;;;;;4.99;68.92;100758.19;147745;1146;104466;-75
2021/03/24 03:45:09;;;;;;;17.30;9.70;;;;;;;4.96;68.47;100758.38;147475;1147;104579;-74
2021/03/24 03:48:15;;;;;;;16.67;10.40;;;;;;;4.91;68.22;100761.34;147702;1147;104583;-75
2021/03/24 03:51:40;;;;;;;20.65;10.80;;;;;;;4.90;68.67;100758.80;147623;1147;104600;-78
2021/03/24 03:54:48;;;;;;;23.00;11.50;;;;;;;4.87;68.57;100753.73;147574;1147;104535;-78
2021/03/24 03:57:55;;;;;;;23.80;10.43;;;;;;;4.89;68.54;100757.96;147647;1147;104594;-81
2021/03/24 04:01:07;;;;;;;19.80;10.13;;;;;;;4.95;68.86;100755.86;147754;1146;104559;-77
2021/03/24 04:04:11;;;;;;;;;;;;;;;4.95;68.46;100759.34;147852;1147;104948;-80
2021/03/24 04:07:19;;;;;;;20.00;9.88;;;;;;;4.95;68.80;100755.86;147842;1147;104466;-78
2021/03/24 04:10:24;;;;;;;22.32;11.80;;;;;;;4.94;68.75;100760.28;147558;1148;104455;-78
2021/03/24 04:13:30;;;;;;;22.50;12.37;;;;;;;4.96;68.75;100768.95;147592;1147;104889;-79
2021/03/24 04:16:36;;;;;;;22.60;12.18;;;;;;;4.94;68.73;100765.57;147790;1147;104483;-80
2021/03/24 04:19:44;;;;;;;19.87;12.10;;;;;;;4.91;68.61;100765.80;147747;1147;104468;-82
2021/03/24 04:22:52;;;;;;;20.17;10.87;;;;;;;4.86;69.47;100762.61;147610;1146;104611;-80
2021/03/24 04:26:01;;;;;;;22.75;11.12;;;;;;;4.79;70.03;100766.61;147703;1148;104581;-79
2021/03/24 04:29:08;;;;;;;20.48;11.08;;;;;;;4.82;69.46;100772.54;147734;1148;104448;-77
2021/03/24 04:32:13;;;;;;;21.47;11.10;;;;;;;4.88;69.11;100765.99;147857;1146;104454;-79
2021/03/24 04:35:21;;;;;;;20.88;11.48;;;;;;;4.91;68.87;100771.92;147772;1147;104447;-78
2021/03/24 04:38:32;;;;;;;17.70;10.87;;;;;;;4.92;68.83;100773.60;147812;1146;104812;-76
2021/03/24 04:41:41;;;;;;;16.85;10.25;;;;;;;4.90;68.85;100780.80;147751;1146;104623;-77
2021/03/24 04:44:49;;;;;;;16.73;10.03;;;;;;;4.94;68.80;100781.44;147933;1148;104813;-75
2021/03/24 04:47:57;;;;;;;18.67;10.28;;;;;;;4.93;68.78;100779.77;147568;1147;104547;-79
2021/03/24 04:51:03;;;;;;;16.10;9.75;;;;;;;4.89;68.74;100783.57;148383;1147;104458;-75
2021/03/24 04:54:14;;;;;;;20.85;10.00;;;;;;;4.86;69.13;100791.69;147587;1147;104604;-79
2021/03/24 04:57:21;;;;;;;16.63;9.80;;;;;;;4.89;68.85;100787.05;147642;1148;104527;-80
2021/03/24 05:00:32;;;;;;;19.95;9.73;;;;;;;4.97;68.64;100798.92;147641;1147;104473;-76
2021/03/24 05:03:38;;;;;;;17.65;10.75;;;;;;;5.05;68.74;100786.02;147643;1147;104510;-76
2021/03/24 05:06:48;;;;;;;19.33;11.73;;;;;;;5.07;68.82;100781.46;147821;1147;105368;-77
2021/03/24 05:09:51;;;;;;;54.10;24.30;;;;;;;5.09;68.66;100785.69;147530;1147;104653;-75
2021/03/24 05:13:01;;;;;;;58.05;26.10;;;;;;;5.11;68.57;100783.78;147805;1148;104452;-72
2021/03/24 05:16:07;;;;;;;29.70;16.48;;;;;;;5.11;68.73;100783.78;147717;1147;104444;-81
2021/03/24 05:19:20;;;;;;;21.82;12.00;;;;;;;5.06;68.80;100788.56;147712;1147;104966;-77
2021/03/24 05:22:32;;;;;;;21.37;12.00;;;;;;;5.05;68.64;100786.02;147724;1147;104575;-76
2021/03/24 05:25:37;;;;;;;;;;;;;;;5.08;68.68;100788.42;147597;1147;104547;-75
2021/03/24 05:28:43;;;;;;;30.90;18.03;;;;;;;5.11;68.45;100788.23;147797;1147;104532;-75
2021/03/24 05:31:50;;;;;;;26.33;14.47;;;;;;;5.19;68.85;100793.00;147895;1147;104531;-76
2021/03/24 05:34:57;;;;;;;29.82;15.20;;;;;;;5.22;68.60;100795.45;147842;1147;104546;-78
2021/03/24 05:38:07;;;;;;;30.88;16.32;;;;;;;5.29;68.70;100804.63;147906;1147;104535;-78
2021/03/24 05:41:17;;;;;;;30.25;15.55;;;;;;;5.29;68.08;100807.28;147739;1147;104572;-76
2021/03/24 05:44:44;;;;;;;26.27;14.23;;;;;;;5.32;68.48;100817.66;147312;1147;104552;-74
2021/03/24 05:48:30;;;;;;;26.20;13.28;;;;;;;5.24;68.69;100818.19;147744;1147;104483;-76
2021/03/24 05:51:43;;;;;;;38.42;22.05;;;;;;;5.16;69.29;100822.30;147782;1147;104518;-74
2021/03/24 05:55:11;;;;;;;31.85;18.20;;;;;;;5.05;69.54;100815.95;147776;1147;104514;-77
2021/03/24 05:58:31;;;;;;;33.77;19.00;;;;;;;4.98;69.49;100819.95;147721;1147;104631;-76
2021/03/24 06:01:42;;;;;;;37.05;22.05;;;;;;;4.97;70.24;100818.27;147751;1147;105071;-79
2021/03/24 06:04:51;;;;;;;34.15;20.95;;;;;;;5.00;69.65;100818.05;147398;1147;104469;-75
2021/03/24 06:08:38;;;;;;;22.80;13.95;;;;;;;5.00;71.65;100827.78;147365;1146;104477;-75
2021/03/24 06:12:03;;;;;;;33.17;22.50;;;;;;;5.05;70.12;100826.52;147714;1147;104473;-78
2021/03/24 06:15:33;;;;;;;32.28;20.88;;;;;;;5.05;70.28;100829.17;147504;1147;104494;-77
2021/03/24 06:18:59;;;;;;;36.68;22.50;;;;;;;5.07;70.08;100826.43;147404;1147;104563;-76
2021/03/24 06:22:12;;;;;;;27.15;16.82;;;;;;;5.05;71.42;100815.11;147440;1147;104580;-77
2021/03/24 06:25:34;;;;;;;24.47;13.28;;;;;;;5.02;71.05;100824.11;147370;1147;104473;-77
2021/03/24 06:28:46;;;;;;;24.70;13.35;;;;;;;5.09;70.40;100822.72;147474;1148;104575;-75
2021/03/24 06:32:21;;;;;;;21.57;12.65;;;;;;;5.23;70.01;100824.42;147340;1148;104569;-76
2021/03/24 06:35:43;;;;;;;24.40;13.72;;;;;;;5.39;69.67;100824.23;147394;1147;104557;-77
2021/03/24 06:39:03;;;;;;;26.05;14.95;;;;;;;5.51;70.07;100827.83;147535;1147;104546;-77
2021/03/24 06:42:25;;;;;;;22.87;14.35;;;;;;;5.61;70.05;100833.34;147393;1147;104473;-75
2021/03/24 06:45:42;;;;;;;22.60;14.00;;;;;;;5.65;69.95;100833.00;147535;1147;104583;-76
2021/03/24 06:48:53;;;;;;;23.12;14.75;;;;;;;5.66;70.14;100836.52;147424;1147;104633;-76
2021/03/24 06:52:32;;;;;;;24.77;14.90;;;;;;;5.64;69.82;100836.62;147513;1147;104471;-77
2021/03/24 06:56:17;;;;;;;25.48;13.75;;;;;;;5.66;70.36;100844.46;147420;1147;104543;-76
2021/03/24 06:59:39;;;;;;;24.20;12.93;;;;;;;5.78;69.41;100846.23;147491;1147;104375;-76
2021/03/24 07:03:31;;;;;;;19.40;12.18;;;;;;;5.92;69.95;100852.37;147604;1147;104432;-76
2021/03/24 07:06:53;;;;;;;22.00;12.80;;;;;;;5.96;69.54;100856.52;147467;1146;104461;-76
2021/03/24 07:10:03;;;;;;;19.45;12.20;;;;;;;5.97;69.86;100855.58;147521;1147;104470;-73
2021/03/24 07:13:48;;;;;;;21.67;13.90;;;;;;;6.03;69.69;100863.09;147594;1147;104466;-76
2021/03/24 07:17:16;;;;;;;22.30;13.67;;;;;;;6.06;68.87;100866.37;147438;1147;104597;-77
2021/03/24 07:20:51;;;;;;;24.65;15.75;;;;;;;6.08;68.94;100863.59;147508;1147;104550;-77
2021/03/24 07:24:28;;;;;;;24.35;14.05;;;;;;;6.05;69.20;100872.61;147809;1147;104582;-77
2021/03/24 07:28:07;;;;;;;23.80;12.55;;;;;;;6.08;69.23;100868.88;147578;1147;104460;-79
2021/03/24 07:31:32;;;;;;;25.92;13.88;;;;;;;6.16;69.33;100869.20;147575;1147;104534;-75
2021/03/24 07:34:57;;;;;;;23.27;14.70;;;;;;;6.35;69.12;100870.52;147580;1148;104497;-83
2021/03/24 07:38:32;;;;;;;24.00;15.40;;;;;;;6.54;68.74;100875.34;147252;1147;104484;-83
2021/03/24 07:41:56;;;;;;;23.05;14.33;;;;;;;6.63;68.70;100872.02;147206;1147;104532;-83
2021/03/24 07:45:30;;;;;;;20.57;13.07;;;;;;;6.73;68.77;100878.33;147355;1146;104515;-84
2021/03/24 07:48:58;;;;;;;19.73;12.85;;;;;;;6.92;67.99;100875.16;147303;1148;104442;-83
2021/03/24 07:52:42;;;;;;;21.40;13.48;;;;;;;6.89;67.74;100880.72;147406;1147;104563;-83
2021/03/24 07:55:47;;;;;;;19.02;12.63;;;;;;;6.94;67.64;100883.02;147249;1147;104575;-82
2021/03/24 07:59:15;;;;;;;27.17;13.85;;;;;;;7.05;68.25;100883.91;147350;1147;104652;-83
2021/03/24 08:02:44;;;;;;;18.67;12.37;;;;;;;7.18;68.10;100881.19;147590;1147;104487;-83
2021/03/24 08:06:12;;;;;;;18.98;12.00;;;;;;;7.26;67.04;100888.57;147412;1147;104476;-83
2021/03/24 08:09:36;;;;;;;16.43;10.43;;;;;;;7.35;67.57;100887.02;147405;1147;105062;-82
2021/03/24 08:13:00;;;;;;;18.15;10.90;;;;;;;7.45;67.53;100886.20;147445;1147;104566;-83
2021/03/24 08:16:15;;;;;;;18.03;11.70;;;;;;;7.59;67.35;100877.17;147461;1147;104643;-85
2021/03/24 08:19:39;;;;;;;19.45;10.75;;;;;;;7.67;65.06;100884.55;147460;1147;104460;-83
2021/03/24 08:22:57;;;;;;;18.48;11.60;;;;;;;7.76;67.10;100881.18;147433;1147;104451;-83
2021/03/24 08:26:16;;;;;;;17.30;11.08;;;;;;;7.96;65.14;100884.08;147413;1147;104431;-83
2021/03/24 08:29:29;;;;;;;21.27;11.43;;;;;;;7.83;65.59;100887.72;147445;1147;104397;-83
2021/03/24 08:33:13;;;;;;;21.23;12.10;;;;;;;7.80;66.00;100885.28;147462;1147;104500;-83
2021/03/24 08:36:37;;;;;;;21.77;12.77;;;;;;;7.75;66.36;100895.41;147421;1147;104543;-83
2021/03/24 08:40:17;;;;;;;21.87;12.88;;;;;;;7.75;65.14;100889.27;147591;1148;104472;-83
2021/03/24 08:43:52;;;;;;;23.15;13.45;;;;;;;7.82;64.71;100891.33;147199;1148;104502;-83
2021/03/24 08:47:01;;;;;;;21.07;14.60;;;;;;;7.75;65.55;100881.30;147400;1147;104549;-84
2021/03/24 08:50:05;;;;;;;21.03;13.83;;;;;;;7.88;66.46;100889.16;147561;1148;104646;-84
2021/03/24 08:53:20;;;;;;;21.45;13.13;;;;;;;7.96;64.57;100889.40;147492;1147;104474;-81
2021/03/24 08:56:34;;;;;;;19.35;11.73;;;;;;;7.93;65.34;100881.66;147500;1147;104542;-83
2021/03/24 08:59:44;;;;;;;16.03;10.60;;;;;;;7.91;64.23;100880.93;147389;1147;104463;-83
2021/03/24 09:03:15;;;;;;;16.25;10.58;;;;;;;7.94;65.49;100886.86;147439;1148;104546;-83
2021/03/24 09:06:31;;;;;;;16.65;10.75;;;;;;;7.94;64.39;100888.67;147493;1148;104614;-84
2021/03/24 09:09:45;;;;;;;16.55;10.85;;;;;;;7.98;64.22;100884.80;147561;1147;104577;-83
2021/03/24 09:12:56;;;;;;;23.35;14.50;;;;;;;7.94;64.83;100878.88;147536;1148;104547;-83
2021/03/24 09:16:50;;;;;;;19.02;11.85;;;;;;;8.04;63.65;100884.31;147363;1146;104447;-83
2021/03/24 09:20:35;;;;;;;14.85;8.95;;;;;;;7.97;61.94;100888.45;147001;1148;104576;-84
2021/03/24 09:24:04;;;;;;;16.42;9.75;;;;;;;7.85;64.06;100885.78;147472;1147;104735;-82
2021/03/24 09:27:33;;;;;;;14.50;10.48;;;;;;;7.82;63.91;100886.01;147509;1147;104525;-83
2021/03/24 09:31:06;;;;;;;28.07;19.90;;;;;;;7.96;63.66;100876.11;147498;1147;104469;-84
2021/03/24 09:34:18;;;;;;;14.07;8.93;;;;;;;8.02;63.54;100868.48;147458;1147;104473;-82
2021/03/24 09:37:30;;;;;;;15.90;9.85;;;;;;;8.16;64.12;100871.86;147462;1148;104469;-83
2021/03/24 09:40:40;;;;;;;15.63;9.87;;;;;;;8.26;62.88;100873.67;147430;1147;104550;-83
2021/03/24 09:43:47;;;;;;;15.38;10.13;;;;;;;8.32;63.07;100874.16;147554;1148;104498;-84
2021/03/24 09:46:53;;;;;;;14.38;8.28;;;;;;;8.32;62.12;100869.68;147442;1148;104568;-83
2021/03/24 09:50:06;;;;;;;11.65;7.20;;;;;;;8.39;62.94;100867.36;147426;1147;104475;-83
2021/03/24 09:53:16;;;;;;;12.75;8.45;;;;;;;8.43;62.97;100879.50;147397;1147;104454;-85
2021/03/24 09:56:24;;;;;;;12.78;8.35;;;;;;;8.56;63.45;100863.37;147504;1146;104662;-84
2021/03/24 09:59:35;;;;;;;18.87;10.20;;;;;;;8.83;62.85;100860.25;147454;1148;104496;-83
2021/03/24 10:02:47;;;;;;;15.80;9.33;;;;;;;9.11;63.26;100852.64;147471;1148;104485;-84
2021/03/24 10:05:56;;;;;;;12.20;8.35;;;;;;;9.25;62.32;100854.98;147537;1147;104535;-84
2021/03/24 10:09:15;;;;;;;13.35;8.18;;;;;;;9.48;62.93;100858.34;147606;1146;104574;-83
2021/03/24 10:12:30;;;;;;;11.30;8.28;;;;;;;9.55;61.62;100848.03;147534;1147;104577;-84
2021/03/24 10:15:38;;;;;;;13.28;8.75;;;;;;;9.60;62.06;100851.12;147680;1147;104476;-84
2021/03/24 10:18:48;;;;;;;12.68;7.90;;;;;;;9.65;61.82;100846.25;147657;1147;104509;-83
2021/03/24 10:21:55;;;;;;;12.73;8.53;;;;;;;9.51;60.40;100847.44;147851;1147;104470;-85
2021/03/24 10:25:06;;;;;;;14.35;8.15;;;;;;;9.40;61.61;100847.51;147753;1147;104525;-84
2021/03/24 10:28:15;;;;;;;12.30;8.08;;;;;;;9.37;60.09;100843.30;147697;1147;104455;-85
2021/03/24 10:31:23;;;;;;;11.33;8.23;;;;;;;9.29;61.91;100845.75;147864;1147;104460;-83
2021/03/24 10:34:33;;;;;;;20.17;12.30;;;;;;;9.46;62.02;100841.66;147704;1147;104445;-81
2021/03/24 10:37:50;;;;;;;12.50;8.65;;;;;;;9.61;60.29;100842.16;147713;1147;104542;-83
2021/03/24 10:41:11;;;;;;;12.13;8.43;;;;;;;9.52;60.91;100840.28;147653;1147;104465;-83
2021/03/24 10:44:21;;;;;;;15.03;9.80;;;;;;;9.48;58.96;100841.53;147629;1147;104514;-84
2021/03/24 10:47:35;;;;;;;12.63;9.43;;;;;;;9.38;60.33;100842.31;147662;1147;104499;-84
2021/03/24 10:50:43;;;;;;;15.10;9.58;;;;;;;9.49;60.72;100838.73;147640;1148;104463;-82
2021/03/24 10:53:47;;;;;;;13.28;9.20;;;;;;;9.63;60.42;100838.38;147678;1147;104489;-83
2021/03/24 10:57:24;;;;;;;12.63;8.53;;;;;;;9.62;59.14;100831.38;147714;1147;104509;-83
2021/03/24 11:00:32;;;;;;;12.05;8.60;;;;;;;9.58;59.98;100829.96;147670;1147;104669;-83
2021/03/24 11:03:51;;;;;;;13.45;8.65;;;;;;;9.43;60.11;100824.13;147657;1148;104467;-82
2021/03/24 11:07:01;;;;;;;13.22;8.48;;;;;;;9.46;60.23;100820.34;147652;1146;104569;-82
2021/03/24 11:10:33;;;;;;;12.80;8.98;;;;;;;9.58;58.73;100823.77;147703;1148;104469;-83
2021/03/24 11:13:39;;;;;;;;;;;;;;;9.45;58.55;100824.00;147677;1147;104543;-84
2021/03/24 11:16:46;;;;;;;13.05;8.75;;;;;;;9.43;59.46;100816.13;147651;1147;104624;-83
2021/03/24 11:19:58;;;;;;;11.85;8.95;;;;;;;9.47;57.43;100813.19;147541;1147;104538;-83
2021/03/24 11:23:08;;;;;;;15.00;9.58;;;;;;;9.51;59.21;100811.97;147680;1147;105074;-81
2021/03/24 11:26:40;;;;;;;14.53;9.28;;;;;;;9.58;59.46;100808.64;147471;1147;104534;-84
2021/03/24 11:30:00;;;;;;;12.80;9.38;;;;;;;9.60;57.83;100811.16;147610;1147;104544;-84
2021/03/24 11:33:16;;;;;;;17.40;9.95;;;;;;;9.43;58.51;100812.63;147655;1147;104877;-83
2021/03/24 11:36:23;;;;;;;12.85;9.33;;;;;;;9.41;59.33;100807.44;147587;1146;104503;-83
2021/03/24 11:39:32;;;;;;;15.83;10.13;;;;;;;9.51;58.65;100809.31;147573;1148;105298;-85
2021/03/24 11:42:37;;;;;;;13.60;9.68;;;;;;;9.56;58.76;100801.74;147522;1147;104480;-83
2021/03/24 11:45:40;;;;;;;130.95;62.95;;;;;;;9.71;59.60;100803.07;147549;1147;104648;-83
2021/03/24 11:49:07;;;;;;;58.60;29.27;;;;;;;9.92;59.00;100800.34;147549;1147;105113;-82
2021/03/24 11:52:26;;;;;;;23.55;13.60;;;;;;;10.03;55.51;100807.41;147701;1147;104540;-84
2021/03/24 11:55:52;;;;;;;15.03;10.83;;;;;;;9.92;55.38;100802.17;147572;1147;104535;-85
2021/03/24 11:59:08;;;;;;;14.68;10.38;;;;;;;9.87;57.65;100813.22;147739;1147;104438;-85
2021/03/24 12:02:21;;;;;;;432.68;244.53;;;;;;;9.91;58.58;100803.14;147890;1146;104454;-85
2021/03/24 12:05:30;;;;;;;180.75;97.33;;;;;;;10.00;58.46;100803.17;147760;1148;104636;-82
2021/03/24 12:08:44;;;;;;;157.52;89.13;;;;;;;9.99;57.05;100801.50;147924;1147;104545;-83
2021/03/24 12:11:48;;;;;;;248.75;145.35;;;;;;;9.94;58.13;100800.22;147787;1147;104463;-83
2021/03/24 12:15:04;;;;;;;55.20;33.13;;;;;;;9.90;57.30;100801.47;147692;1147;104543;-83
2021/03/24 12:18:11;;;;;;;23.02;15.80;;;;;;;9.65;58.10;100798.28;147926;1147;104506;-83
2021/03/24 12:21:24;;;;;;;20.68;14.03;;;;;;;9.49;57.11;100806.77;147860;1147;104707;-82
2021/03/24 12:24:31;;;;;;;19.65;11.75;;;;;;;9.19;57.01;100808.41;147816;1148;104476;-83
2021/03/24 12:27:41;;;;;;;18.00;11.63;;;;;;;8.95;57.03;100806.02;147591;1147;104556;-84
2021/03/24 12:30:48;;;;;;;20.75;11.70;;;;;;;8.76;57.88;100801.39;147705;1147;104443;-84
2021/03/24 12:33:54;;;;;;;24.92;14.73;;;;;;;8.70;57.37;100793.06;147684;1148;104487;-85
2021/03/24 12:37:00;;;;;;;49.05;31.80;;;;;;;8.59;57.65;100802.78;147630;1147;104659;-83
2021/03/24 12:40:15;;;;;;;47.55;29.82;;;;;;;8.52;58.35;100809.58;147792;1147;104510;-84
2021/03/24 12:43:25;;;;;;;25.92;15.75;;;;;;;8.44;57.74;100801.39;147729;1147;104463;-85
2021/03/24 12:46:28;;;;;;;21.77;13.40;;;;;;;8.25;58.49;100807.33;147721;1147;104558;-85
2021/03/24 12:49:34;;;;;;;19.27;12.57;;;;;;;8.01;57.69;100805.69;147836;1147;104662;-84
2021/03/24 12:52:44;;;;;;;23.05;12.47;;;;;;;7.89;59.10;100805.81;147831;1147;104617;-84
2021/03/24 12:55:55;;;;;;;17.80;11.90;;;;;;;7.79;58.66;100798.56;147692;1148;104480;-83
2021/03/24 12:59:35;;;;;;;29.95;19.45;;;;;;;7.71;58.31;100797.50;147561;1148;104548;-84
2021/03/24 13:03:21;;;;;;;17.10;11.80;;;;;;;7.63;58.73;100792.79;147526;1147;104460;-84
2021/03/24 13:06:48;;;;;;;28.30;19.37;;;;;;;7.58;59.47;100789.64;147180;1147;104662;-80
2021/03/24 13:10:05;;;;;;;32.67;17.67;;;;;;;7.67;59.54;100786.27;147445;1147;104547;-83
2021/03/24 13:13:15;;;;;;;41.30;21.42;;;;;;;7.70;58.79;100786.03;147401;1147;104457;-82
2021/03/24 13:16:28;;;;;;;28.57;15.25;;;;;;;7.70;59.14;100778.06;147377;1147;105109;-84
2021/03/24 13:19:39;;;;;;;26.93;17.90;;;;;;;7.77;58.73;100778.41;147310;1147;104536;-83
2021/03/24 13:22:50;;;;;;;18.55;12.50;;;;;;;7.82;58.25;100774.42;147592;1147;104620;-84
2021/03/24 13:25:57;;;;;;;17.73;12.75;;;;;;;7.86;58.31;100775.86;147496;1147;104498;-83
2021/03/24 13:29:10;;;;;;;25.97;17.00;;;;;;;7.92;58.20;100773.69;147558;1148;104541;-82
2021/03/24 13:32:23;;;;;;;24.33;14.90;;;;;;;8.00;58.48;100772.09;147520;1148;104572;-84
2021/03/24 13:35:32;;;;;;;62.95;34.70;;;;;;;8.09;58.64;100770.52;147442;1146;104486;-85
2021/03/24 13:38:42;;;;;;;26.00;17.48;;;;;;;8.19;58.24;100770.61;147744;1147;104451;-81
2021/03/24 13:41:49;;;;;;;20.13;13.73;;;;;;;8.15;58.46;100764.70;147428;1148;104898;-84
2021/03/24 13:44:59;;;;;;;119.72;50.92;;;;;;;8.16;58.32;100769.06;147426;1147;104509;-83
2021/03/24 13:48:13;;;;;;;152.03;59.57;;;;;;;8.29;58.54;100763.56;147442;1147;104491;-82
2021/03/24 13:51:20;;;;;;;40.73;21.55;;;;;;;8.38;58.72;100768.13;147389;1147;104468;-83
2021/03/24 13:54:38;;;;;;;26.33;15.25;;;;;;;8.33;58.17;100772.97;147539;1147;104453;-84
2021/03/24 13:57:50;;;;;;;19.80;12.43;;;;;;;8.21;57.62;100768.67;147792;1145;104609;-83
2021/03/24 14:01:03;;;;;;;17.48;12.18;;;;;;;8.11;58.64;100765.92;147439;1147;104432;-81
2021/03/24 14:04:18;;;;;;;17.23;12.70;;;;;;;8.07;57.76;100764.48;147441;1147;104459;-84
2021/03/24 14:07:38;;;;;;;29.20;17.00;;;;;;;7.99;57.74;100762.45;147424;1146;104540;-84
2021/03/24 14:10:43;;;;;;;16.35;11.78;;;;;;;7.94;57.96;100755.81;147472;1147;104490;-84
2021/03/24 14:14:07;;;;;;;16.23;11.20;;;;;;;7.91;58.01;100764.88;147430;1147;104615;-83
2021/03/24 14:17:27;;;;;;;15.83;10.57;;;;;;;7.83;57.77;100767.29;147548;1147;104565;-84
2021/03/24 14:20:36;;;;;;;16.70;12.10;;;;;;;7.89;58.05;100768.61;147332;1148;104563;-82
2021/03/24 14:23:50;;;;;;;16.03;11.03;;;;;;;7.86;57.62;100775.03;147466;1147;104476;-83
2021/03/24 14:27:03;;;;;;;15.78;9.68;;;;;;;7.78;58.17;100772.98;147434;1147;104572;-83
2021/03/24 14:30:13;;;;;;;14.85;9.93;;;;;;;7.80;58.90;100775.52;147472;1148;104530;-82
2021/03/24 14:33:31;;;;;;;15.75;10.58;;;;;;;7.81;57.32;100775.41;147515;1147;104468;-82